Latest Weather Observations for Mangrove Mountain

IDN60901

Issued at 8:41 pm EDT Friday 12 February 2016 (issued every 10 minutes, with the page automatically refreshed every 10 minutes)

About weather observations | Map of Sydney area stations | Latest observations for Sydney area | Other Formats
Station Details ID: 061375 Name: MANGROVE MOUNTAIN AWS Lat: -33.29 Lon: 151.21 Height: 305.0 m
Data from the previous 72 hours. | See also: Recent months at Mangrove Mountain
Date/Time
EDT
Tmp

°C
App
Tmp
°C
Dew
Point
°C
Rel
Hum
%
Delta-T

°C
Wind Press
QNH
hPa
Press
MSL
hPa
Rain
since
9 am
mm
Dir
 
Spd
km/h
Gust
km/h
Spd
kts
Gust
kts
12/08:30pm 21.0 22.1 18.0 83 1.9 ENE 9 15 5 8 - - 0.0
12/08:00pm 21.5 22.2 17.9 80 2.3 E 11 19 6 10 - - 0.0
12/07:30pm 22.5 23.1 17.8 75 3.0 E 11 17 6 9 - - 0.0
12/07:00pm 23.4 23.7 17.8 71 3.5 E 13 20 7 11 - - 0.0
12/06:30pm 24.5 24.9 18.2 68 4.0 E 13 24 7 13 - - 0.0
12/06:00pm 25.2 25.3 18.4 66 4.4 E 15 24 8 13 - - 0.0
12/05:30pm 26.1 26.8 18.8 64 4.7 E 13 20 7 11 - - 0.0
12/05:00pm 26.9 27.8 19.3 63 5.0 E 13 20 7 11 - - 0.0
12/04:30pm 27.1 27.6 18.4 59 5.6 ENE 13 20 7 11 - - 0.0
12/04:00pm 27.0 27.9 18.3 59 5.6 ENE 11 19 6 10 - - 0.0
12/03:30pm 26.8 27.4 17.6 57 5.9 E 11 19 6 10 - - 0.0
12/03:00pm 27.7 28.3 16.9 51 6.8 E 9 15 5 8 - - 0.0
12/02:30pm 27.4 28.3 17.6 55 6.3 ENE 9 20 5 11 - - 0.0
12/02:00pm 28.1 29.7 19.1 58 5.9 ENE 9 17 5 9 - - 0.0
12/01:30pm 27.1 27.8 17.0 54 6.4 ENE 9 17 5 9 - - 0.0
12/01:00pm 25.8 26.6 16.4 56 5.9 NE 7 15 4 8 - - 0.0
12/12:30pm 26.5 27.3 17.3 57 5.8 E 9 19 5 10 - - 0.0
12/12:00pm 26.3 27.5 17.4 58 5.6 E 7 17 4 9 - - 0.0
12/11:30am 25.4 26.8 17.8 62 4.8 E 7 11 4 6 - - 0.0
12/11:00am 24.6 25.8 17.3 64 4.6 ENE 7 11 4 6 - - 0.0
12/10:30am 25.1 26.6 17.6 63 4.7 NE 6 11 3 6 - - 0.0
12/10:00am 24.5 25.9 17.7 66 4.3 NE 7 13 4 7 - - 0.0
12/09:30am 23.9 25.1 17.4 67 4.1 NE 7 13 4 7 - - 0.0
12/09:00am 23.1 24.4 17.6 71 3.5 ENE 7 13 4 7 - - 0.0
12/08:30am 22.1 24.3 19.3 84 1.8 ENE 6 9 3 5 - - 0.0
12/08:00am 20.0 23.7 20.0 100 0.0 CALM 0 4 0 2 - - 0.0
12/07:30am 19.0 22.3 19.0 100 0.0 CALM 0 0 0 0 - - 0.0
12/07:00am 17.5 20.1 17.5 100 0.0 CALM 0 0 0 0 - - 0.0
12/06:30am 16.8 19.0 16.6 99 0.1 CALM 0 0 0 0 - - 0.0
12/06:00am 17.1 19.2 17.1 100 0.0 ENE 2 4 1 2 - - 0.0
12/05:30am 16.6 18.7 16.3 98 0.2 CALM 0 0 0 0 - - 0.0
12/05:00am 16.7 18.4 16.2 97 0.3 ENE 2 2 1 1 - - 0.0
12/04:30am 17.2 19.5 16.7 97 0.3 CALM 0 0 0 0 - - 0.0
12/04:00am 17.4 19.4 16.9 97 0.3 ESE 2 2 1 1 - - 0.0
12/03:30am 17.8 20.3 17.3 97 0.3 CALM 0 0 0 0 - - 0.0
12/03:00am 17.9 20.4 17.3 96 0.4 CALM 0 0 0 0 - - 0.0
12/02:30am 18.0 20.4 17.0 94 0.6 CALM 0 0 0 0 - - 0.0
12/02:00am 18.6 21.2 17.4 93 0.7 CALM 0 0 0 0 - - 0.0
12/01:30am 19.3 22.2 18.3 94 0.6 CALM 0 4 0 2 - - 0.0
12/01:00am 19.8 22.6 18.8 94 0.6 ENE 2 7 1 4 - - 0.0
12/12:30am 20.2 22.7 19.0 93 0.8 ENE 4 7 2 4 - - 0.0
12/12:00am 20.1 22.5 18.8 92 0.8 ESE 4 7 2 4 - - 0.0
 
Date/Time
EDT
Tmp

°C
App
Tmp
°C
Dew
Point
°C
Rel
Hum
%
Delta-T

°C
Wind Press
QNH
hPa
Press
MSL
hPa
Rain
since
9 am
mm
Dir
 
Spd
km/h
Gust
km/h
Spd
kts
Gust
kts
11/11:30pm 20.4 22.8 18.7 90 1.1 ENE 4 7 2 4 - - 0.0
11/11:00pm 20.9 24.2 19.2 90 1.1 CALM 0 0 0 0 - - 0.0
11/10:30pm 21.0 22.7 19.3 90 1.1 E 9 15 5 8 - - 0.0
11/10:00pm 21.2 22.9 19.3 89 1.2 E 9 17 5 9 - - 0.0
11/09:30pm 21.1 22.4 19.2 89 1.2 ENE 11 19 6 10 - - 0.0
11/09:00pm 20.8 22.6 18.7 88 1.3 E 7 17 4 9 - - 0.0
11/08:30pm 21.1 23.2 19.0 88 1.3 E 6 9 3 5 - - 0.0
11/08:00pm 21.3 23.4 19.0 87 1.5 E 6 11 3 6 - - 0.0
11/07:30pm 21.7 23.9 19.1 85 1.7 ESE 6 11 3 6 - - 0.0
11/07:00pm 22.2 24.1 19.0 82 2.0 ESE 7 15 4 8 - - 0.0
11/06:30pm 22.6 23.7 18.8 79 2.4 ESE 11 17 6 9 - - 0.0
11/06:00pm 23.4 24.7 18.5 74 3.1 ESE 9 15 5 8 - - 0.0
11/05:30pm 24.7 24.9 18.6 69 3.9 E 15 22 8 12 - - 0.0
11/05:00pm 25.4 25.6 18.6 66 4.4 ESE 15 24 8 13 - - 0.0
11/04:30pm 24.9 25.1 17.6 64 4.6 E 13 26 7 14 - - 0.0
11/04:00pm 25.7 26.4 17.9 62 5.0 E 11 22 6 12 - - 0.0
11/03:30pm 26.2 26.8 16.7 56 6.0 ESE 9 19 5 10 - - 0.0
11/03:00pm 26.6 27.1 17.4 57 5.8 E 11 20 6 11 - - 0.0
11/02:30pm 26.6 27.4 18.2 60 5.4 E 11 20 6 11 - - 0.0
11/02:00pm 26.5 26.9 17.3 57 5.8 ENE 11 20 6 11 - - 0.0
11/01:30pm 27.4 29.0 17.8 55 6.1 E 6 13 3 7 - - 0.0
11/01:00pm 25.6 26.2 16.7 58 5.6 ENE 9 15 5 8 - - 0.0
11/12:30pm 25.3 26.4 17.0 60 5.2 E 7 17 4 9 - - 0.0
11/12:00pm 25.9 26.9 17.8 61 5.2 ENE 9 20 5 11 - - 0.0
11/11:30am 25.5 26.5 17.7 62 5.0 ENE 9 15 5 8 - - 0.0
11/11:00am 24.8 25.1 17.0 62 4.9 E 11 19 6 10 - - 0.0
11/10:30am 24.9 26.3 17.4 63 4.7 E 6 13 3 7 - - 0.0
11/10:00am 24.4 26.1 18.1 68 4.0 ESE 6 13 3 7 - - 0.0
11/09:30am 21.6 23.7 18.0 80 2.3 SW 4 6 2 3 - - 0.0
11/09:00am 21.1 23.3 18.3 84 1.8 W 4 6 2 3 - - -
11/08:30am 19.8 21.4 17.8 88 1.2 NNW 6 6 3 3 - - -
11/08:00am 19.7 22.7 18.5 93 0.8 CALM 0 0 0 0 - - -
11/07:30am 18.0 20.6 17.5 97 0.3 CALM 0 4 0 2 - - -
11/07:00am 17.1 19.1 16.9 99 0.1 NE 2 6 1 3 - - -
11/06:30am 16.0 17.4 15.5 97 0.3 NE 2 4 1 2 - - -
11/06:00am 16.1 17.5 15.3 95 0.5 NE 2 4 1 2 - - -
11/05:30am 16.6 18.1 15.8 95 0.5 NE 2 6 1 3 - - -
11/05:00am 17.2 19.0 16.4 95 0.5 ENE 2 6 1 3 - - -
11/04:30am 17.3 18.7 16.3 94 0.6 ENE 4 6 2 3 - - -
11/04:00am 17.5 19.3 16.4 93 0.7 ENE 2 4 1 2 - - -
11/03:30am 17.8 19.3 16.7 93 0.7 ENE 4 7 2 4 - - -
11/03:00am 17.7 19.1 16.4 92 0.8 ENE 4 7 2 4 - - 0.0
11/02:30am 17.9 18.9 16.4 91 0.9 ENE 6 9 3 5 - - -
11/02:00am 18.1 19.1 16.4 90 1.0 ENE 6 11 3 6 - - -
11/01:30am 18.3 19.3 16.3 88 1.2 E 6 9 3 5 - - -
11/01:00am 18.7 19.5 16.3 86 1.5 ENE 7 11 4 6 - - -
11/12:30am 18.9 19.2 16.1 84 1.7 ENE 9 13 5 7 - - -
11/12:00am 19.1 19.4 16.1 83 1.8 ENE 9 17 5 9 - - -
 
Date/Time
EDT
Tmp

°C
App
Tmp
°C
Dew
Point
°C
Rel
Hum
%
Delta-T

°C
Wind Press
QNH
hPa
Press
MSL
hPa
Rain
since
9 am
mm
Dir
 
Spd
km/h
Gust
km/h
Spd
kts
Gust
kts
10/11:30pm 19.3 19.7 16.2 82 1.9 ENE 9 15 5 8 - - -
10/11:00pm 19.3 20.1 16.3 83 1.8 ENE 7 13 4 7 - - -
10/10:30pm 19.4 19.7 16.1 81 2.0 ENE 9 17 5 9 - - -
10/10:00pm 19.6 20.0 16.3 81 2.0 ENE 9 15 5 8 - - -
10/09:30pm 19.8 19.8 16.3 80 2.1 ENE 11 17 6 9 - - -
10/09:00pm 20.0 20.4 16.2 79 2.3 ENE 9 19 5 10 - - 0.0
10/08:30pm 20.3 20.3 16.3 78 2.4 ENE 11 20 6 11 - - -
10/08:00pm 20.8 20.6 16.6 77 2.6 ENE 13 20 7 11 - - -
10/07:30pm 21.7 22.0 16.9 74 3.0 ENE 11 17 6 9 - - -
10/07:00pm 23.0 23.3 17.0 69 3.7 ENE 11 19 6 10 - - -
10/06:30pm 24.1 24.2 17.4 66 4.2 ENE 13 20 7 11 - - -
10/06:00pm 24.9 25.2 17.9 65 4.4 ENE 13 20 7 11 - - -
10/05:30pm 26.5 27.3 19.1 64 4.8 ENE 13 20 7 11 - - -
10/05:00pm 26.6 26.9 17.9 59 5.6 ENE 13 20 7 11 - - -
10/04:30pm 27.2 27.8 17.7 56 6.1 NE 11 19 6 10 - - -
10/04:00pm 28.3 29.4 17.2 51 7.1 NNE 7 17 4 9 - - -
10/03:30pm 27.8 28.1 16.1 49 7.3 E 9 17 5 9 - - -
10/03:00pm 27.7 28.4 15.7 48 7.4 NNE 6 9 3 5 - - -
10/02:30pm 27.2 27.8 15.9 50 7.0 NE 7 13 4 7 - - -
10/02:00pm 27.2 28.5 16.2 51 6.9 ENE 4 9 2 5 - - -
10/01:30pm 26.6 27.8 15.9 51 6.6 ENE 4 15 2 8 - - -
10/01:00pm 26.2 27.1 16.2 54 6.2 N 6 13 3 7 - - 0.0
10/12:30pm 25.6 26.5 15.0 52 6.5 NNE 4 11 2 6 - - 0.0
10/12:00pm 25.4 25.9 15.1 53 6.3 NE 6 11 3 6 - - 0.0
10/11:30am 24.9 26.6 17.1 62 4.9 NNE 4 7 2 4 - - 0.0
10/11:00am 24.7 26.1 17.4 64 4.6 N 6 13 3 7 - - 0.0
10/10:30am 22.7 23.9 16.9 70 3.6 NW 6 11 3 6 - - 0.0
10/10:00am 22.7 24.7 19.1 80 2.3 W 7 11 4 6 - - 0.0
10/09:30am 21.0 22.9 18.6 86 1.5 NW 6 9 3 5 - - 0.0
10/09:00am 19.7 21.9 19.2 97 0.3 WNW 6 7 3 4 - - 0.0
10/08:30am 19.1 22.4 19.1 100 0.0 CALM 0 0 0 0 - - 0.0
10/08:00am 17.6 19.5 17.6 100 0.0 NW 4 6 2 3 - - 0.0
10/07:30am 16.8 19.1 16.8 100 0.0 CALM 0 0 0 0 - - 0.0
10/07:00am 15.8 17.7 15.8 100 0.0 CALM 0 0 0 0 - - 0.0
10/06:30am 15.8 17.7 15.8 100 0.0 CALM 0 0 0 0 - - 0.0
10/06:00am 15.7 17.5 15.5 99 0.1 CALM 0 0 0 0 - - 0.0
10/05:30am 15.2 16.8 14.9 98 0.2 CALM 0 0 0 0 - - 0.0
10/05:00am 15.4 17.1 15.1 98 0.2 CALM 0 0 0 0 - - 0.0
10/04:30am 15.6 17.3 15.1 97 0.3 CALM 0 0 0 0 - - 0.0
10/04:00am 16.1 18.0 15.8 98 0.2 CALM 0 0 0 0 - - 0.0
10/03:30am 15.9 17.7 15.4 97 0.3 CALM 0 0 0 0 - - 0.0
10/03:00am 16.5 18.6 16.2 98 0.2 CALM 0 0 0 0 - - 0.0
10/02:30am 16.6 18.7 16.3 98 0.2 CALM 0 0 0 0 - - 0.0
10/02:00am 16.6 18.8 16.4 99 0.1 CALM 0 0 0 0 - - 0.0
10/01:30am 16.6 18.7 16.3 98 0.2 CALM 0 0 0 0 - - 0.0
10/01:00am 16.4 18.3 15.8 96 0.4 CALM 0 0 0 0 - - 0.0
10/12:30am 16.7 18.8 16.2 97 0.3 CALM 0 0 0 0 - - 0.0
10/12:00am 16.8 18.9 16.3 97 0.3 CALM 0 0 0 0 - - 0.0
 
Date/Time
EDT
Tmp

°C
App
Tmp
°C
Dew
Point
°C
Rel
Hum
%
Delta-T

°C
Wind Press
QNH
hPa
Press
MSL
hPa
Rain
since
9 am
mm
Dir
 
Spd
km/h
Gust
km/h
Spd
kts
Gust
kts
09/11:30pm 17.0 19.2 16.4 96 0.4 CALM 0 0 0 0 - - 0.0
09/11:00pm 16.8 18.7 15.8 94 0.6 CALM 0 0 0 0 - - 0.0
09/10:30pm 17.3 19.4 16.3 94 0.6 CALM 0 0 0 0 - - 0.0
09/10:00pm 17.6 19.8 16.5 93 0.7 CALM 0 0 0 0 - - 0.0
09/09:30pm 18.1 20.0 16.8 92 0.8 SE 2 4 1 2 - - 0.0
09/09:00pm 18.5 20.4 16.8 90 1.0 SE 2 4 1 2 - - 0.0

Latest Capital City Observations: Canberra | Sydney | Melbourne | Brisbane | Adelaide | Perth | Hobart | Darwin

Other Formats:

Comma delimited format used in spreadsheet applications
http://www.bom.gov.au/fwo/IDN60901/IDN60901.95774.axf

JavaScript Object Notation format (JSON) in row-major order
http://www.bom.gov.au/fwo/IDN60901/IDN60901.95774.json